sensor_id;sensor_type;location;lat;lon;timestamp;temperature;humidity
29917;DHT22;16786;49.466;11.068;2023-03-01T00:01:30;-0.80;99.90
29917;DHT22;16786;49.466;11.068;2023-03-01T00:03:58;-0.80;99.90
29917;DHT22;16786;49.466;11.068;2023-03-01T00:06:27;-0.80;99.90
29917;DHT22;16786;49.466;11.068;2023-03-01T00:08:55;-0.80;99.90
29917;DHT22;16786;49.466;11.068;2023-03-01T00:11:25;-0.90;99.90
29917;DHT22;16786;49.466;11.068;2023-03-01T00:13:54;-0.90;99.90
29917;DHT22;16786;49.466;11.068;2023-03-01T00:16:28;-0.90;99.90
29917;DHT22;16786;49.466;11.068;2023-03-01T00:18:56;-0.90;99.90
29917;DHT22;16786;49.466;11.068;2023-03-01T00:21:25;-0.80;99.90
29917;DHT22;16786;49.466;11.068;2023-03-01T00:23:53;-0.90;99.90
29917;DHT22;16786;49.466;11.068;2023-03-01T00:26:22;-0.90;99.90
29917;DHT22;16786;49.466;11.068;2023-03-01T00:28:50;-0.90;99.90
29917;DHT22;16786;49.466;11.068;2023-03-01T00:31:20;-0.90;99.90
29917;DHT22;16786;49.466;11.068;2023-03-01T00:33:48;-1.00;99.90
29917;DHT22;16786;49.466;11.068;2023-03-01T00:36:15;-1.00;99.90
29917;DHT22;16786;49.466;11.068;2023-03-01T00:38:45;-1.00;99.90
29917;DHT22;16786;49.466;11.068;2023-03-01T00:41:15;-1.00;99.90
29917;DHT22;16786;49.466;11.068;2023-03-01T00:43:43;-1.00;99.90
29917;DHT22;16786;49.466;11.068;2023-03-01T00:46:18;-1.00;99.90
29917;DHT22;16786;49.466;11.068;2023-03-01T00:48:46;-1.00;99.90
29917;DHT22;16786;49.466;11.068;2023-03-01T00:51:23;-1.00;99.90
29917;DHT22;16786;49.466;11.068;2023-03-01T00:53:52;-1.00;99.90
29917;DHT22;16786;49.466;11.068;2023-03-01T00:56:19;-1.00;99.90
29917;DHT22;16786;49.466;11.068;2023-03-01T00:58:48;-1.00;99.90
29917;DHT22;16786;49.466;11.068;2023-03-01T01:01:20;-1.00;99.90
29917;DHT22;16786;49.466;11.068;2023-03-01T01:03:56;-1.00;99.90
29917;DHT22;16786;49.466;11.068;2023-03-01T01:06:28;-1.00;99.90
29917;DHT22;16786;49.466;11.068;2023-03-01T01:08:58;-1.00;99.90
29917;DHT22;16786;49.466;11.068;2023-03-01T01:11:27;-1.00;99.90
29917;DHT22;16786;49.466;11.068;2023-03-01T01:13:56;-1.10;99.90
29917;DHT22;16786;49.466;11.068;2023-03-01T01:16:25;-1.00;99.90
29917;DHT22;16786;49.466;11.068;2023-03-01T01:18:54;-1.10;99.90
29917;DHT22;16786;49.466;11.068;2023-03-01T01:21:24;-1.10;99.90
29917;DHT22;16786;49.466;11.068;2023-03-01T01:23:51;-1.00;99.90
29917;DHT22;16786;49.466;11.068;2023-03-01T01:26:25;-1.00;99.90
29917;DHT22;16786;49.466;11.068;2023-03-01T01:28:54;-1.10;99.90
29917;DHT22;16786;49.466;11.068;2023-03-01T01:31:22;-1.10;99.90
29917;DHT22;16786;49.466;11.068;2023-03-01T01:33:53;-1.10;99.90
29917;DHT22;16786;49.466;11.068;2023-03-01T01:36:21;-1.10;99.90
29917;DHT22;16786;49.466;11.068;2023-03-01T01:38:48;-1.10;99.90
29917;DHT22;16786;49.466;11.068;2023-03-01T01:41:16;-1.20;99.90
29917;DHT22;16786;49.466;11.068;2023-03-01T01:43:49;-1.20;99.90
29917;DHT22;16786;49.466;11.068;2023-03-01T01:48:47;-1.20;99.90
29917;DHT22;16786;49.466;11.068;2023-03-01T01:51:25;-1.20;99.90
29917;DHT22;16786;49.466;11.068;2023-03-01T01:53:56;-1.20;99.90
29917;DHT22;16786;49.466;11.068;2023-03-01T01:56:27;-1.20;99.90
29917;DHT22;16786;49.466;11.068;2023-03-01T01:58:56;-1.30;99.90
29917;DHT22;16786;49.466;11.068;2023-03-01T02:01:25;-1.30;99.90
29917;DHT22;16786;49.466;11.068;2023-03-01T02:03:52;-1.30;99.90
29917;DHT22;16786;49.466;11.068;2023-03-01T02:06:33;-1.30;99.90
29917;DHT22;16786;49.466;11.068;2023-03-01T02:09:08;-1.30;99.90
29917;DHT22;16786;49.466;11.068;2023-03-01T02:11:38;-1.30;99.90
29917;DHT22;16786;49.466;11.068;2023-03-01T02:14:05;-1.30;99.90
29917;DHT22;16786;49.466;11.068;2023-03-01T02:16:33;-1.20;99.90
29917;DHT22;16786;49.466;11.068;2023-03-01T02:19:01;-1.20;99.90
29917;DHT22;16786;49.466;11.068;2023-03-01T02:21:46;-1.20;99.90
29917;DHT22;16786;49.466;11.068;2023-03-01T02:26:50;-1.30;99.90
29917;DHT22;16786;49.466;11.068;2023-03-01T02:29:19;-1.30;99.90
29917;DHT22;16786;49.466;11.068;2023-03-01T02:31:47;-1.30;99.90
29917;DHT22;16786;49.466;11.068;2023-03-01T02:34:18;-1.30;99.90
29917;DHT22;16786;49.466;11.068;2023-03-01T02:37:15;-1.20;99.90
29917;DHT22;16786;49.466;11.068;2023-03-01T02:39:55;-1.20;99.90
29917;DHT22;16786;49.466;11.068;2023-03-01T02:42:32;-1.20;99.90
29917;DHT22;16786;49.466;11.068;2023-03-01T02:45:03;-1.10;99.90
29917;DHT22;16786;49.466;11.068;2023-03-01T02:47:30;-1.20;99.90
29917;DHT22;16786;49.466;11.068;2023-03-01T02:49:57;-1.20;99.90
29917;DHT22;16786;49.466;11.068;2023-03-01T02:52:41;-1.20;99.90
29917;DHT22;16786;49.466;11.068;2023-03-01T02:55:14;-1.30;99.90
29917;DHT22;16786;49.466;11.068;2023-03-01T02:57:43;-1.30;99.90
29917;DHT22;16786;49.466;11.068;2023-03-01T03:00:21;-1.30;99.90
29917;DHT22;16786;49.466;11.068;2023-03-01T03:02:51;-1.30;99.90
29917;DHT22;16786;49.466;11.068;2023-03-01T03:05:24;-1.30;99.90
29917;DHT22;16786;49.466;11.068;2023-03-01T03:07:56;-1.30;99.90
29917;DHT22;16786;49.466;11.068;2023-03-01T03:10:27;-1.40;99.90
29917;DHT22;16786;49.466;11.068;2023-03-01T03:13:00;-1.50;99.90
29917;DHT22;16786;49.466;11.068;2023-03-01T03:15:28;-1.40;99.90
29917;DHT22;16786;49.466;11.068;2023-03-01T03:17:57;-1.50;99.90
29917;DHT22;16786;49.466;11.068;2023-03-01T03:20:27;-1.50;99.90
29917;DHT22;16786;49.466;11.068;2023-03-01T03:22:56;-1.60;99.90
29917;DHT22;16786;49.466;11.068;2023-03-01T03:25:26;-1.60;99.90
29917;DHT22;16786;49.466;11.068;2023-03-01T03:27:55;-1.60;99.90
29917;DHT22;16786;49.466;11.068;2023-03-01T03:30:28;-1.60;99.90
29917;DHT22;16786;49.466;11.068;2023-03-01T03:32:57;-1.60;99.90
29917;DHT22;16786;49.466;11.068;2023-03-01T03:35:30;-1.60;99.90
29917;DHT22;16786;49.466;11.068;2023-03-01T03:38:07;-1.60;99.90
29917;DHT22;16786;49.466;11.068;2023-03-01T03:40:38;-1.60;99.90
29917;DHT22;16786;49.466;11.068;2023-03-01T03:43:08;-1.60;99.90
29917;DHT22;16786;49.466;11.068;2023-03-01T03:45:36;-1.60;99.90
29917;DHT22;16786;49.466;11.068;2023-03-01T03:48:06;-1.60;99.90
29917;DHT22;16786;49.466;11.068;2023-03-01T03:50:34;-1.70;99.90
29917;DHT22;16786;49.466;11.068;2023-03-01T03:53:03;-1.70;99.90
29917;DHT22;16786;49.466;11.068;2023-03-01T03:55:31;-1.80;99.90
29917;DHT22;16786;49.466;11.068;2023-03-01T03:58:02;-1.80;99.90
29917;DHT22;16786;49.466;11.068;2023-03-01T04:00:39;-1.90;99.90
29917;DHT22;16786;49.466;11.068;2023-03-01T04:03:07;-1.90;99.90
29917;DHT22;16786;49.466;11.068;2023-03-01T04:05:36;-2.00;99.90
29917;DHT22;16786;49.466;11.068;2023-03-01T04:08:04;-2.00;99.90
29917;DHT22;16786;49.466;11.068;2023-03-01T04:10:37;-2.00;99.90
29917;DHT22;16786;49.466;11.068;2023-03-01T04:13:06;-2.00;99.90
29917;DHT22;16786;49.466;11.068;2023-03-01T04:15:34;-2.00;99.90
29917;DHT22;16786;49.466;11.068;2023-03-01T04:18:02;-1.90;99.90
29917;DHT22;16786;49.466;11.068;2023-03-01T04:20:33;-1.90;99.90
29917;DHT22;16786;49.466;11.068;2023-03-01T04:23:03;-2.00;99.90
29917;DHT22;16786;49.466;11.068;2023-03-01T04:25:48;-1.90;99.90
29917;DHT22;16786;49.466;11.068;2023-03-01T04:28:41;-1.90;99.90
29917;DHT22;16786;49.466;11.068;2023-03-01T04:31:14;-1.90;99.90
29917;DHT22;16786;49.466;11.068;2023-03-01T04:33:48;-2.00;99.90
29917;DHT22;16786;49.466;11.068;2023-03-01T04:36:16;-2.00;99.90
29917;DHT22;16786;49.466;11.068;2023-03-01T04:38:45;-2.00;99.90
29917;DHT22;16786;49.466;11.068;2023-03-01T04:41:17;-2.00;99.90
29917;DHT22;16786;49.466;11.068;2023-03-01T04:43:45;-2.00;99.90
29917;DHT22;16786;49.466;11.068;2023-03-01T04:46:14;-2.00;99.90
29917;DHT22;16786;49.466;11.068;2023-03-01T04:48:44;-1.90;99.90
29917;DHT22;16786;49.466;11.068;2023-03-01T04:51:11;-1.90;99.90
29917;DHT22;16786;49.466;11.068;2023-03-01T04:53:41;-1.80;99.90
29917;DHT22;16786;49.466;11.068;2023-03-01T04:56:09;-1.90;99.90
29917;DHT22;16786;49.466;11.068;2023-03-01T04:58:36;-1.90;99.90
29917;DHT22;16786;49.466;11.068;2023-03-01T05:01:09;-1.90;99.90
29917;DHT22;16786;49.466;11.068;2023-03-01T05:03:43;-1.90;99.90
29917;DHT22;16786;49.466;11.068;2023-03-01T05:06:11;-2.00;99.90
29917;DHT22;16786;49.466;11.068;2023-03-01T05:08:39;-2.10;99.90
29917;DHT22;16786;49.466;11.068;2023-03-01T05:11:07;-2.10;99.90
29917;DHT22;16786;49.466;11.068;2023-03-01T05:13:37;-2.10;99.90
29917;DHT22;16786;49.466;11.068;2023-03-01T05:16:06;-2.20;99.90
29917;DHT22;16786;49.466;11.068;2023-03-01T05:18:33;-2.20;99.90
29917;DHT22;16786;49.466;11.068;2023-03-01T05:21:10;-2.10;99.90
29917;DHT22;16786;49.466;11.068;2023-03-01T05:23:38;-2.20;99.90
29917;DHT22;16786;49.466;11.068;2023-03-01T05:26:06;-2.20;99.90
29917;DHT22;16786;49.466;11.068;2023-03-01T05:28:48;-2.30;99.90
29917;DHT22;16786;49.466;11.068;2023-03-01T05:31:15;-2.30;99.90
29917;DHT22;16786;49.466;11.068;2023-03-01T05:33:43;-2.30;99.90
29917;DHT22;16786;49.466;11.068;2023-03-01T05:36:10;-2.30;99.90
29917;DHT22;16786;49.466;11.068;2023-03-01T05:38:37;-2.30;99.90
29917;DHT22;16786;49.466;11.068;2023-03-01T05:41:05;-2.30;99.90
29917;DHT22;16786;49.466;11.068;2023-03-01T05:43:32;-2.30;99.90
29917;DHT22;16786;49.466;11.068;2023-03-01T05:46:02;-2.40;99.90
29917;DHT22;16786;49.466;11.068;2023-03-01T05:48:29;-2.40;99.90
29917;DHT22;16786;49.466;11.068;2023-03-01T05:50:59;-2.40;99.90
29917;DHT22;16786;49.466;11.068;2023-03-01T05:53:27;-2.40;99.90
29917;DHT22;16786;49.466;11.068;2023-03-01T05:55:55;-2.40;99.90
29917;DHT22;16786;49.466;11.068;2023-03-01T05:58:22;-2.40;99.90
29917;DHT22;16786;49.466;11.068;2023-03-01T06:00:49;-2.50;99.90
29917;DHT22;16786;49.466;11.068;2023-03-01T06:03:19;-2.50;99.90
29917;DHT22;16786;49.466;11.068;2023-03-01T06:05:46;-2.50;99.90
29917;DHT22;16786;49.466;11.068;2023-03-01T06:08:13;-2.40;99.90
29917;DHT22;16786;49.466;11.068;2023-03-01T06:10:41;-2.40;99.90
29917;DHT22;16786;49.466;11.068;2023-03-01T06:13:08;-2.30;99.90
29917;DHT22;16786;49.466;11.068;2023-03-01T06:15:35;-2.30;99.90
29917;DHT22;16786;49.466;11.068;2023-03-01T06:18:03;-2.30;99.90
29917;DHT22;16786;49.466;11.068;2023-03-01T06:20:30;-2.30;99.90
29917;DHT22;16786;49.466;11.068;2023-03-01T06:22:57;-2.20;99.90
29917;DHT22;16786;49.466;11.068;2023-03-01T06:25:26;-2.10;99.90
29917;DHT22;16786;49.466;11.068;2023-03-01T06:27:54;-2.00;99.90
29917;DHT22;16786;49.466;11.068;2023-03-01T06:30:23;-2.00;99.90
29917;DHT22;16786;49.466;11.068;2023-03-01T06:32:51;-1.90;99.90
29917;DHT22;16786;49.466;11.068;2023-03-01T06:35:22;-1.90;99.90
29917;DHT22;16786;49.466;11.068;2023-03-01T06:37:49;-1.80;99.90
29917;DHT22;16786;49.466;11.068;2023-03-01T06:40:16;-1.70;99.90
29917;DHT22;16786;49.466;11.068;2023-03-01T06:42:48;-1.60;99.90
29917;DHT22;16786;49.466;11.068;2023-03-01T06:45:16;-1.60;99.90
29917;DHT22;16786;49.466;11.068;2023-03-01T06:47:43;-1.50;99.90
29917;DHT22;16786;49.466;11.068;2023-03-01T06:50:11;-1.40;99.90
29917;DHT22;16786;49.466;11.068;2023-03-01T06:52:39;-1.40;99.90
29917;DHT22;16786;49.466;11.068;2023-03-01T06:55:07;-1.30;99.90
29917;DHT22;16786;49.466;11.068;2023-03-01T06:57:34;-1.20;99.90
29917;DHT22;16786;49.466;11.068;2023-03-01T07:00:03;-1.20;99.90
29917;DHT22;16786;49.466;11.068;2023-03-01T07:02:31;-1.10;99.90
29917;DHT22;16786;49.466;11.068;2023-03-01T07:04:58;-1.00;99.90
29917;DHT22;16786;49.466;11.068;2023-03-01T07:07:25;-0.90;99.90
29917;DHT22;16786;49.466;11.068;2023-03-01T07:09:53;-0.90;99.90
29917;DHT22;16786;49.466;11.068;2023-03-01T07:12:21;-0.80;99.90
29917;DHT22;16786;49.466;11.068;2023-03-01T07:14:48;-0.70;99.90
29917;DHT22;16786;49.466;11.068;2023-03-01T07:17:16;-0.60;99.90
29917;DHT22;16786;49.466;11.068;2023-03-01T07:19:43;-0.50;99.90
29917;DHT22;16786;49.466;11.068;2023-03-01T07:22:11;-0.40;99.90
29917;DHT22;16786;49.466;11.068;2023-03-01T07:24:39;-0.30;99.90
29917;DHT22;16786;49.466;11.068;2023-03-01T07:27:07;-0.20;99.90
29917;DHT22;16786;49.466;11.068;2023-03-01T07:29:34;-0.10;99.90
29917;DHT22;16786;49.466;11.068;2023-03-01T07:32:04;-0.10;99.90
29917;DHT22;16786;49.466;11.068;2023-03-01T07:34:32;0.00;99.90
29917;DHT22;16786;49.466;11.068;2023-03-01T07:36:59;0.10;99.90
29917;DHT22;16786;49.466;11.068;2023-03-01T07:39:26;0.20;99.90
29917;DHT22;16786;49.466;11.068;2023-03-01T07:41:53;0.30;99.90
29917;DHT22;16786;49.466;11.068;2023-03-01T07:44:22;0.30;99.90
29917;DHT22;16786;49.466;11.068;2023-03-01T07:46:49;0.30;99.90
29917;DHT22;16786;49.466;11.068;2023-03-01T07:49:16;0.40;99.90
29917;DHT22;16786;49.466;11.068;2023-03-01T07:51:43;0.50;99.90
29917;DHT22;16786;49.466;11.068;2023-03-01T07:54:11;0.60;99.90
29917;DHT22;16786;49.466;11.068;2023-03-01T07:56:38;0.60;99.90
29917;DHT22;16786;49.466;11.068;2023-03-01T07:59:05;0.70;99.90
29917;DHT22;16786;49.466;11.068;2023-03-01T08:01:32;0.80;99.90
29917;DHT22;16786;49.466;11.068;2023-03-01T08:04:00;0.90;99.90
29917;DHT22;16786;49.466;11.068;2023-03-01T08:06:28;0.90;99.90
29917;DHT22;16786;49.466;11.068;2023-03-01T08:08:56;1.00;99.90
29917;DHT22;16786;49.466;11.068;2023-03-01T08:11:23;1.10;99.90
29917;DHT22;16786;49.466;11.068;2023-03-01T08:13:50;1.10;99.90
29917;DHT22;16786;49.466;11.068;2023-03-01T08:16:19;1.20;99.90
29917;DHT22;16786;49.466;11.068;2023-03-01T08:18:47;1.30;99.90
29917;DHT22;16786;49.466;11.068;2023-03-01T08:21:16;1.40;99.90
29917;DHT22;16786;49.466;11.068;2023-03-01T08:23:44;1.50;99.90
29917;DHT22;16786;49.466;11.068;2023-03-01T08:26:16;1.50;99.90
29917;DHT22;16786;49.466;11.068;2023-03-01T08:28:44;1.50;99.90
29917;DHT22;16786;49.466;11.068;2023-03-01T08:31:21;1.70;99.90
29917;DHT22;16786;49.466;11.068;2023-03-01T08:33:52;1.80;99.90
29917;DHT22;16786;49.466;11.068;2023-03-01T08:36:23;1.90;99.90
29917;DHT22;16786;49.466;11.068;2023-03-01T08:38:52;2.00;99.90
29917;DHT22;16786;49.466;11.068;2023-03-01T08:41:20;2.10;99.90
29917;DHT22;16786;49.466;11.068;2023-03-01T08:43:47;2.20;99.90
29917;DHT22;16786;49.466;11.068;2023-03-01T08:46:14;2.30;99.90
29917;DHT22;16786;49.466;11.068;2023-03-01T08:48:42;2.40;99.90
29917;DHT22;16786;49.466;11.068;2023-03-01T08:51:16;2.50;99.90
29917;DHT22;16786;49.466;11.068;2023-03-01T08:53:44;2.60;99.90
29917;DHT22;16786;49.466;11.068;2023-03-01T08:56:12;2.70;99.90
29917;DHT22;16786;49.466;11.068;2023-03-01T08:58:42;2.80;99.90
29917;DHT22;16786;49.466;11.068;2023-03-01T09:01:11;3.00;99.90
29917;DHT22;16786;49.466;11.068;2023-03-01T09:03:39;3.00;99.90
29917;DHT22;16786;49.466;11.068;2023-03-01T09:06:07;3.10;99.90
29917;DHT22;16786;49.466;11.068;2023-03-01T09:08:39;3.20;99.90
29917;DHT22;16786;49.466;11.068;2023-03-01T09:11:08;3.30;99.90
29917;DHT22;16786;49.466;11.068;2023-03-01T09:13:36;3.40;99.90
29917;DHT22;16786;49.466;11.068;2023-03-01T09:16:05;3.60;99.90
29917;DHT22;16786;49.466;11.068;2023-03-01T09:18:34;3.60;99.90
29917;DHT22;16786;49.466;11.068;2023-03-01T09:21:03;3.60;99.90
29917;DHT22;16786;49.466;11.068;2023-03-01T09:23:35;3.80;99.90
29917;DHT22;16786;49.466;11.068;2023-03-01T09:26:07;3.90;99.90
29917;DHT22;16786;49.466;11.068;2023-03-01T09:28:37;4.00;99.90
29917;DHT22;16786;49.466;11.068;2023-03-01T09:31:05;4.10;99.90
29917;DHT22;16786;49.466;11.068;2023-03-01T09:33:33;4.20;99.90
29917;DHT22;16786;49.466;11.068;2023-03-01T09:36:05;4.30;99.90
29917;DHT22;16786;49.466;11.068;2023-03-01T09:38:35;4.30;99.90
29917;DHT22;16786;49.466;11.068;2023-03-01T09:41:02;4.40;99.90
29917;DHT22;16786;49.466;11.068;2023-03-01T09:46:13;4.60;99.90
29917;DHT22;16786;49.466;11.068;2023-03-01T09:48:49;4.70;99.90
29917;DHT22;16786;49.466;11.068;2023-03-01T09:51:19;4.90;99.90
29917;DHT22;16786;49.466;11.068;2023-03-01T09:53:50;4.90;99.90
29917;DHT22;16786;49.466;11.068;2023-03-01T10:02:44;5.10;99.90
29917;DHT22;16786;49.466;11.068;2023-03-01T10:10:57;5.50;99.90
29917;DHT22;16786;49.466;11.068;2023-03-01T10:19:23;5.90;99.90
29917;DHT22;16786;49.466;11.068;2023-03-01T10:21:51;6.10;99.90
29917;DHT22;16786;49.466;11.068;2023-03-01T10:24:20;6.30;99.90
29917;DHT22;16786;49.466;11.068;2023-03-01T10:26:55;6.40;99.90
29917;DHT22;16786;49.466;11.068;2023-03-01T10:29:40;6.40;99.90
29917;DHT22;16786;49.466;11.068;2023-03-01T10:32:12;6.50;99.90
29917;DHT22;16786;49.466;11.068;2023-03-01T10:34:39;6.80;99.90
29917;DHT22;16786;49.466;11.068;2023-03-01T10:37:13;7.00;99.90
29917;DHT22;16786;49.466;11.068;2023-03-01T10:40:10;7.10;99.90
29917;DHT22;16786;49.466;11.068;2023-03-01T10:42:40;7.20;99.90
29917;DHT22;16786;49.466;11.068;2023-03-01T10:47:46;7.50;99.90
29917;DHT22;16786;49.466;11.068;2023-03-01T10:50:21;7.70;99.90
29917;DHT22;16786;49.466;11.068;2023-03-01T10:52:59;7.90;99.90
29917;DHT22;16786;49.466;11.068;2023-03-01T10:55:39;8.20;99.90
29917;DHT22;16786;49.466;11.068;2023-03-01T10:58:20;8.30;99.90
29917;DHT22;16786;49.466;11.068;2023-03-01T11:03:30;8.60;99.90
29917;DHT22;16786;49.466;11.068;2023-03-01T11:08:44;8.80;99.90
29917;DHT22;16786;49.466;11.068;2023-03-01T11:20:15;9.90;99.90
29917;DHT22;16786;49.466;11.068;2023-03-01T11:22:54;10.20;99.90
29917;DHT22;16786;49.466;11.068;2023-03-01T11:25:42;10.50;99.90
29917;DHT22;16786;49.466;11.068;2023-03-01T11:28:16;10.50;99.90
29917;DHT22;16786;49.466;11.068;2023-03-01T11:31:06;10.80;99.70
29917;DHT22;16786;49.466;11.068;2023-03-01T11:39:51;11.50;96.80
29917;DHT22;16786;49.466;11.068;2023-03-01T11:42:27;11.60;95.90
29917;DHT22;16786;49.466;11.068;2023-03-01T11:44:59;11.60;95.80
29917;DHT22;16786;49.466;11.068;2023-03-01T11:55:41;13.10;92.90
29917;DHT22;16786;49.466;11.068;2023-03-01T12:01:31;13.70;91.10
29917;DHT22;16786;49.466;11.068;2023-03-01T12:10:27;13.50;89.10
29917;DHT22;16786;49.466;11.068;2023-03-01T12:13:37;13.80;89.80
29917;DHT22;16786;49.466;11.068;2023-03-01T12:17:16;14.20;88.10
29917;DHT22;16786;49.466;11.068;2023-03-01T12:19:41;14.50;87.20
29917;DHT22;16786;49.466;11.068;2023-03-01T12:22:29;14.70;85.90
29917;DHT22;16786;49.466;11.068;2023-03-01T12:38:56;15.20;82.50
29917;DHT22;16786;49.466;11.068;2023-03-01T12:44:40;16.20;79.70
29917;DHT22;16786;49.466;11.068;2023-03-01T12:49:56;18.00;76.10
29917;DHT22;16786;49.466;11.068;2023-03-01T12:52:35;18.50;73.90
29917;DHT22;16786;49.466;11.068;2023-03-01T12:55:18;18.90;71.10
29917;DHT22;16786;49.466;11.068;2023-03-01T12:58:39;19.20;69.50
29917;DHT22;16786;49.466;11.068;2023-03-01T13:03:44;20.20;67.10
29917;DHT22;16786;49.466;11.068;2023-03-01T13:20:48;24.10;56.60
29917;DHT22;16786;49.466;11.068;2023-03-01T13:26:17;24.80;54.90
29917;DHT22;16786;49.466;11.068;2023-03-01T13:34:03;25.10;52.50
29917;DHT22;16786;49.466;11.068;2023-03-01T13:39:13;24.40;52.70
29917;DHT22;16786;49.466;11.068;2023-03-01T13:41:55;24.80;52.10
29917;DHT22;16786;49.466;11.068;2023-03-01T13:44:34;24.70;52.60
29917;DHT22;16786;49.466;11.068;2023-03-01T13:47:15;25.10;52.30
29917;DHT22;16786;49.466;11.068;2023-03-01T13:49:50;23.50;52.20
29917;DHT22;16786;49.466;11.068;2023-03-01T13:52:42;24.00;53.20
29917;DHT22;16786;49.466;11.068;2023-03-01T13:57:49;26.00;51.10
29917;DHT22;16786;49.466;11.068;2023-03-01T14:00:34;25.60;51.20
29917;DHT22;16786;49.466;11.068;2023-03-01T14:05:39;26.30;49.80
29917;DHT22;16786;49.466;11.068;2023-03-01T14:08:22;25.70;50.00
29917;DHT22;16786;49.466;11.068;2023-03-01T14:16:53;27.70;48.40
29917;DHT22;16786;49.466;11.068;2023-03-01T14:19:27;27.70;48.00
29917;DHT22;16786;49.466;11.068;2023-03-01T14:24:51;26.60;48.70
29917;DHT22;16786;49.466;11.068;2023-03-01T14:27:19;26.60;48.70
29917;DHT22;16786;49.466;11.068;2023-03-01T14:30:00;26.30;48.70
29917;DHT22;16786;49.466;11.068;2023-03-01T14:32:32;26.30;48.80
29917;DHT22;16786;49.466;11.068;2023-03-01T14:35:00;26.30;48.30
29917;DHT22;16786;49.466;11.068;2023-03-01T14:37:33;26.20;48.40
29917;DHT22;16786;49.466;11.068;2023-03-01T14:40:03;26.30;48.50
29917;DHT22;16786;49.466;11.068;2023-03-01T14:42:34;25.10;49.30
29917;DHT22;16786;49.466;11.068;2023-03-01T14:45:04;26.40;49.30
29917;DHT22;16786;49.466;11.068;2023-03-01T14:47:35;25.40;49.20
29917;DHT22;16786;49.466;11.068;2023-03-01T14:52:42;25.20;49.80
29917;DHT22;16786;49.466;11.068;2023-03-01T14:55:20;25.80;49.10
29917;DHT22;16786;49.466;11.068;2023-03-01T14:57:50;26.50;48.20
29917;DHT22;16786;49.466;11.068;2023-03-01T15:00:28;26.30;48.50
29917;DHT22;16786;49.466;11.068;2023-03-01T15:03:01;25.90;48.60
29917;DHT22;16786;49.466;11.068;2023-03-01T15:05:31;25.70;48.70
29917;DHT22;16786;49.466;11.068;2023-03-01T15:08:01;25.60;49.10
29917;DHT22;16786;49.466;11.068;2023-03-01T15:10:31;25.00;48.80
29917;DHT22;16786;49.466;11.068;2023-03-01T15:13:23;24.80;49.30
29917;DHT22;16786;49.466;11.068;2023-03-01T15:15:53;24.80;49.60
29917;DHT22;16786;49.466;11.068;2023-03-01T15:18:25;24.90;49.00
29917;DHT22;16786;49.466;11.068;2023-03-01T15:20:54;24.20;49.70
29917;DHT22;16786;49.466;11.068;2023-03-01T15:23:27;24.50;49.80
29917;DHT22;16786;49.466;11.068;2023-03-01T15:25:56;24.80;49.80
29917;DHT22;16786;49.466;11.068;2023-03-01T15:28:29;25.70;48.90
29917;DHT22;16786;49.466;11.068;2023-03-01T15:33:48;25.20;49.40
29917;DHT22;16786;49.466;11.068;2023-03-01T15:36:49;23.50;50.10
29917;DHT22;16786;49.466;11.068;2023-03-01T15:39:37;23.60;51.10
29917;DHT22;16786;49.466;11.068;2023-03-01T15:44:35;22.80;52.20
29917;DHT22;16786;49.466;11.068;2023-03-01T15:47:48;23.40;51.60
29917;DHT22;16786;49.466;11.068;2023-03-01T15:52:50;22.40;52.50
29917;DHT22;16786;49.466;11.068;2023-03-01T15:55:19;22.10;52.70
29917;DHT22;16786;49.466;11.068;2023-03-01T15:57:47;22.50;52.40
29917;DHT22;16786;49.466;11.068;2023-03-01T16:00:16;21.50;53.50
29917;DHT22;16786;49.466;11.068;2023-03-01T16:02:44;21.70;53.50
29917;DHT22;16786;49.466;11.068;2023-03-01T16:05:20;21.20;54.00
29917;DHT22;16786;49.466;11.068;2023-03-01T16:07:48;21.30;53.90
29917;DHT22;16786;49.466;11.068;2023-03-01T16:10:15;20.70;54.30
29917;DHT22;16786;49.466;11.068;2023-03-01T16:12:43;19.30;55.80
29917;DHT22;16786;49.466;11.068;2023-03-01T16:15:20;18.90;56.70
29917;DHT22;16786;49.466;11.068;2023-03-01T16:17:48;18.80;56.90
29917;DHT22;16786;49.466;11.068;2023-03-01T16:20:22;17.90;58.10
29917;DHT22;16786;49.466;11.068;2023-03-01T16:22:57;17.30;59.10
29917;DHT22;16786;49.466;11.068;2023-03-01T16:25:25;17.40;59.20
29917;DHT22;16786;49.466;11.068;2023-03-01T16:27:52;17.60;59.10
29917;DHT22;16786;49.466;11.068;2023-03-01T16:30:21;17.10;59.70
29917;DHT22;16786;49.466;11.068;2023-03-01T16:32:50;16.70;60.40
29917;DHT22;16786;49.466;11.068;2023-03-01T16:35:20;16.00;61.70
29917;DHT22;16786;49.466;11.068;2023-03-01T16:37:48;15.50;62.80
29917;DHT22;16786;49.466;11.068;2023-03-01T16:40:25;15.20;63.10
29917;DHT22;16786;49.466;11.068;2023-03-01T16:42:54;14.60;64.50
29917;DHT22;16786;49.466;11.068;2023-03-01T16:45:28;13.90;65.90
29917;DHT22;16786;49.466;11.068;2023-03-01T16:47:55;13.10;67.70
29917;DHT22;16786;49.466;11.068;2023-03-01T16:50:22;12.20;69.30
29917;DHT22;16786;49.466;11.068;2023-03-01T16:52:50;11.70;70.90
29917;DHT22;16786;49.466;11.068;2023-03-01T16:55:17;11.10;72.30
29917;DHT22;16786;49.466;11.068;2023-03-01T16:57:45;10.50;74.60
29917;DHT22;16786;49.466;11.068;2023-03-01T17:00:12;9.90;76.50
29917;DHT22;16786;49.466;11.068;2023-03-01T17:02:41;9.40;78.00
29917;DHT22;16786;49.466;11.068;2023-03-01T17:05:09;8.90;80.10
29917;DHT22;16786;49.466;11.068;2023-03-01T17:07:39;8.50;82.70
29917;DHT22;16786;49.466;11.068;2023-03-01T17:10:08;8.10;84.80
29917;DHT22;16786;49.466;11.068;2023-03-01T17:12:36;7.70;87.20
29917;DHT22;16786;49.466;11.068;2023-03-01T17:15:05;7.50;90.00
29917;DHT22;16786;49.466;11.068;2023-03-01T17:17:32;7.30;91.30
29917;DHT22;16786;49.466;11.068;2023-03-01T17:20:02;7.10;92.80
29917;DHT22;16786;49.466;11.068;2023-03-01T17:22:31;6.90;94.10
29917;DHT22;16786;49.466;11.068;2023-03-01T17:24:58;6.70;95.80
29917;DHT22;16786;49.466;11.068;2023-03-01T17:27:25;6.50;97.70
29917;DHT22;16786;49.466;11.068;2023-03-01T17:29:52;6.30;99.40
29917;DHT22;16786;49.466;11.068;2023-03-01T17:32:20;6.20;99.90
29917;DHT22;16786;49.466;11.068;2023-03-01T17:34:47;6.10;99.90
29917;DHT22;16786;49.466;11.068;2023-03-01T17:37:15;5.90;99.90
29917;DHT22;16786;49.466;11.068;2023-03-01T17:39:42;5.80;99.90
29917;DHT22;16786;49.466;11.068;2023-03-01T17:42:09;5.70;99.90
29917;DHT22;16786;49.466;11.068;2023-03-01T17:44:36;5.60;99.90
29917;DHT22;16786;49.466;11.068;2023-03-01T17:47:05;5.50;99.90
29917;DHT22;16786;49.466;11.068;2023-03-01T17:49:32;5.50;99.90
29917;DHT22;16786;49.466;11.068;2023-03-01T17:51:59;5.40;99.90
29917;DHT22;16786;49.466;11.068;2023-03-01T17:54:27;5.30;99.90
29917;DHT22;16786;49.466;11.068;2023-03-01T17:56:54;5.30;99.90
29917;DHT22;16786;49.466;11.068;2023-03-01T17:59:22;5.30;99.90
29917;DHT22;16786;49.466;11.068;2023-03-01T18:01:49;5.30;99.90
29917;DHT22;16786;49.466;11.068;2023-03-01T18:04:16;5.20;99.90